Terminal Aerodrome Forecast
Issued by NWS

Home | Current Version | Previous Version | Text Only | Print | Product List | Glossary Off
Versions: 1 2 3 4 5 6 7 8 9 10 11 12 13 14 15 16 17 18 19 20 21

000
FTUS43 KGRB 212320
TAFATW
TAF
KATW 212320Z 2200/2224 24009G15KT P6SM BKN250
     FM220200 23006KT P6SM SCT250
     FM220600 27004KT 4SM BR SKC
      TEMPO 2206/2210 1SM BR SCT003 SCT150
     FM221000 32004KT 3SM BR SCT003 SCT150
     FM221300 34004KT P6SM SCT150
     FM221800 24003KT P6SM FEW040=

USA.gov is the U.S. government's official web portal to all federal, state and local government web resources and services.